Time;durP1;ratioP1;P1;durP2;ratioP2;P2;SDS_P1;SDS_P2;PMS_P1;PMS_P2;Temp;Humidity;BMP_temperature;BMP_pressure;BME280_temperature;BME280_humidity;BME280_pressure;Samples;Min_cycle;Max_cycle;Signal;HPM_P1;HPM_P2
2022/01/10 00:02:05;;;;;;;8.77;5.60;;;;;;;5.60;66.04;95965.69;5064249;28;20428;-73
2022/01/10 00:04:30;;;;;;;11.17;5.67;;;;;;;5.61;65.76;95967.34;5072209;28;20210;-72
2022/01/10 00:06:56;;;;;;;12.60;5.83;;;;;;;5.49;65.58;95978.94;5070139;28;20454;-71
2022/01/10 00:09:21;;;;;;;8.47;5.77;;;;;;;5.49;66.02;95974.53;5063474;28;20186;-72
2022/01/10 00:11:47;;;;;;;9.13;5.50;;;;;;;5.50;66.10;95972.78;5072220;28;20186;-73
2022/01/10 00:14:13;;;;;;;10.97;5.60;;;;;;;5.40;65.89;95977.25;5072049;28;20202;-71
2022/01/10 00:16:40;;;;;;;10.80;6.00;;;;;;;5.50;66.26;95980.56;5071526;28;20185;-71
2022/01/10 00:19:05;;;;;;;10.80;6.20;;;;;;;5.42;66.24;95981.31;5070873;28;20425;-72
2022/01/10 00:21:31;;;;;;;12.50;6.70;;;;;;;5.24;66.58;95983.94;5063815;28;20998;-73
2022/01/10 00:23:56;;;;;;;9.87;5.60;;;;;;;5.28;66.73;95985.28;5068389;28;20263;-70
2022/01/10 00:26:22;;;;;;;9.40;5.53;;;;;;;5.28;66.06;95984.44;5072087;28;20205;-72
2022/01/10 00:28:47;;;;;;;15.73;6.47;;;;;;;5.29;66.15;95986.91;5071536;28;20213;-72
2022/01/10 00:31:13;;;;;;;14.40;5.60;;;;;;;5.27;65.79;95988.00;5070743;28;20182;-71
2022/01/10 00:33:39;;;;;;;11.00;6.13;;;;;;;5.14;66.13;95989.19;5071190;28;20203;-73
2022/01/10 00:36:05;;;;;;;17.90;5.50;;;;;;;5.26;66.31;95992.41;5070764;28;20642;-73
2022/01/10 00:38:30;;;;;;;15.13;5.83;;;;;;;5.29;66.38;95991.28;5071420;28;20269;-71
2022/01/10 00:40:56;;;;;;;11.13;5.20;;;;;;;5.26;66.06;95997.59;5074196;28;20420;-74
2022/01/10 00:43:31;;;;;;;13.23;5.23;;;;;;;5.34;65.88;95997.66;5058212;28;20210;-72
2022/01/10 00:45:57;;;;;;;10.90;5.70;;;;;;;5.29;65.96;96002.50;5074288;28;20289;-71
2022/01/10 00:48:23;;;;;;;14.70;5.63;;;;;;;5.32;66.22;96006.56;5073281;28;20463;-71
2022/01/10 00:50:48;;;;;;;14.40;5.40;;;;;;;5.33;65.98;96010.81;5068648;28;20421;-72
2022/01/10 00:53:14;;;;;;;10.03;6.00;;;;;;;5.36;66.15;96005.28;5074253;28;20441;-72
2022/01/10 00:55:40;;;;;;;10.17;5.27;;;;;;;5.18;66.69;96015.69;5069524;28;20208;-71
2022/01/10 00:58:05;;;;;;;10.17;6.13;;;;;;;5.16;66.52;96013.25;5066950;28;20712;-71
2022/01/10 01:00:31;;;;;;;7.53;4.60;;;;;;;5.30;66.02;96032.69;5073475;28;20195;-71
2022/01/10 01:02:58;;;;;;;10.63;5.70;;;;;;;5.42;66.18;96022.91;5067681;28;20218;-71
2022/01/10 01:05:26;;;;;;;9.30;5.37;;;;;;;5.46;66.04;96028.59;5069710;28;20241;-71
2022/01/10 01:07:52;;;;;;;12.90;6.00;;;;;;;5.36;66.08;96019.13;5069023;28;20470;-70
2022/01/10 01:13:05;;;;;;;8.10;5.20;;;;;;;5.35;66.26;96033.06;5072298;28;20448;-72
2022/01/10 01:15:34;;;;;;;9.90;5.53;;;;;;;5.18;66.59;96036.47;5067768;28;20425;-73
2022/01/10 01:25:53;;;;;;;10.50;5.53;;;;;;;5.25;66.78;96063.50;5051702;28;20417;-71
2022/01/10 01:28:19;;;;;;;11.93;6.00;;;;;;;4.91;67.43;96057.13;5072870;28;20423;-72
2022/01/10 01:30:45;;;;;;;13.73;6.63;;;;;;;5.12;67.33;96068.22;5072608;28;20190;-73
2022/01/10 01:33:13;;;;;;;7.53;6.07;;;;;;;5.29;66.94;96072.66;5073304;28;20202;-72
2022/01/10 01:35:39;;;;;;;12.83;6.33;;;;;;;5.37;66.90;96072.72;5073053;28;20258;-73
2022/01/10 01:38:05;;;;;;;11.13;6.50;;;;;;;5.41;66.62;96073.22;5073774;28;20508;-73
2022/01/10 01:40:32;;;;;;;10.47;6.17;;;;;;;5.48;66.30;96082.06;5073736;28;20187;-71
2022/01/10 01:42:58;;;;;;;12.27;6.80;;;;;;;5.59;65.89;96080.22;5073458;28;20444;-73
2022/01/10 01:45:41;;;;;;;8.40;6.13;;;;;;;5.58;65.88;96087.19;5065927;28;20506;-72
2022/01/10 01:48:07;;;;;;;12.77;7.27;;;;;;;5.44;66.47;96082.50;5066757;28;20186;-73
2022/01/10 01:50:33;;;;;;;9.50;6.20;;;;;;;5.43;66.24;96094.69;5067948;28;20783;-72
2022/01/10 01:52:59;;;;;;;11.53;6.80;;;;;;;5.41;65.69;96095.81;5073712;28;20437;-72
2022/01/10 01:55:24;;;;;;;13.93;6.90;;;;;;;5.45;66.17;96087.56;5073630;28;20415;-72
2022/01/10 01:57:50;;;;;;;17.20;6.07;;;;;;;5.35;66.37;96095.44;5072993;28;20186;-71
2022/01/10 02:00:19;;;;;;;10.63;6.10;;;;;;;5.42;66.13;96094.84;5073236;28;20183;-73
2022/01/10 02:02:50;;;;;;;9.90;6.70;;;;;;;5.47;65.95;96090.84;5067010;28;20225;-70
2022/01/10 02:05:17;;;;;;;8.27;5.77;;;;;;;5.59;65.98;96099.22;5073131;28;20461;-72
2022/01/10 02:07:43;;;;;;;8.37;6.60;;;;;;;5.65;65.70;96101.25;5071479;28;20424;-71
2022/01/10 02:10:09;;;;;;;8.83;5.80;;;;;;;5.68;65.69;96110.53;5071127;28;20773;-72
2022/01/10 02:12:34;;;;;;;9.07;6.33;;;;;;;5.68;65.40;96111.31;5066767;28;20672;-72
2022/01/10 02:15:00;;;;;;;7.10;5.80;;;;;;;5.73;65.57;96112.69;5073169;28;20423;-71
2022/01/10 02:17:34;;;;;;;11.13;6.80;;;;;;;5.50;65.89;96116.53;5071038;28;20229;-71
2022/01/10 02:20:01;;;;;;;11.50;5.80;;;;;;;5.59;66.10;96122.63;5066680;28;20187;-72
2022/01/10 02:22:27;;;;;;;8.00;5.40;;;;;;;5.48;66.30;96125.44;5051424;28;21012;-72
2022/01/10 02:24:53;;;;;;;7.70;5.13;;;;;;;5.49;66.06;96122.69;5070822;28;20457;-74
2022/01/10 02:27:22;;;;;;;11.03;5.57;;;;;;;5.56;65.70;96125.50;5064206;28;20174;-72
2022/01/10 02:29:48;;;;;;;10.70;5.57;;;;;;;5.54;65.94;96127.47;5065975;28;20417;-72
2022/01/10 02:32:15;;;;;;;11.17;5.40;;;;;;;5.52;65.73;96124.19;5072127;28;20421;-70
2022/01/10 02:34:41;;;;;;;6.47;4.57;;;;;;;5.62;66.01;96127.53;5054847;28;20461;-72
2022/01/10 02:37:06;;;;;;;7.83;4.80;;;;;;;5.74;65.74;96135.13;5073502;28;20428;-71
2022/01/10 02:39:32;;;;;;;11.83;5.20;;;;;;;5.78;65.17;96137.25;5068672;28;20179;-73
2022/01/10 02:41:58;;;;;;;8.50;4.27;;;;;;;5.82;65.02;96142.97;5072036;28;20201;-70
2022/01/10 02:44:24;;;;;;;7.20;4.30;;;;;;;5.87;64.89;96145.97;5067461;28;20202;-71
2022/01/10 02:46:49;;;;;;;8.40;5.60;;;;;;;5.85;64.77;96147.88;5068064;28;20569;-71
2022/01/10 02:49:26;;;;;;;9.10;5.73;;;;;;;5.84;64.70;96159.25;5059718;28;20430;-72
2022/01/10 02:51:54;;;;;;;8.50;5.50;;;;;;;5.75;65.06;96153.16;5056828;28;20272;-72
2022/01/10 02:54:22;;;;;;;9.33;5.77;;;;;;;5.73;64.90;96159.47;5073988;28;20879;-71
2022/01/10 02:56:51;;;;;;;10.17;6.23;;;;;;;5.75;65.16;96168.75;5074004;28;20448;-73
2022/01/10 02:59:17;;;;;;;10.70;6.10;;;;;;;5.75;65.40;96163.56;5071176;28;20429;-72
2022/01/10 03:01:43;;;;;;;9.27;5.50;;;;;;;5.73;65.17;96167.28;5067419;28;20425;-72
2022/01/10 03:04:09;;;;;;;8.10;5.97;;;;;;;5.68;65.12;96165.91;5063931;28;20555;-73
2022/01/10 03:06:36;;;;;;;9.53;5.80;;;;;;;5.73;65.33;96172.47;5070782;28;20831;-71
2022/01/10 03:09:05;;;;;;;10.07;5.73;;;;;;;5.81;65.26;96182.94;5059416;28;20784;-73
2022/01/10 03:11:32;;;;;;;8.27;5.10;;;;;;;5.64;65.03;96182.78;5071435;28;20424;-72
2022/01/10 03:13:58;;;;;;;10.20;5.90;;;;;;;5.72;65.36;96181.22;5063378;28;20924;-72
2022/01/10 03:16:24;;;;;;;8.10;5.60;;;;;;;5.68;65.41;96191.91;5063260;28;20424;-73
2022/01/10 03:18:49;;;;;;;10.47;5.27;;;;;;;5.74;65.55;96187.91;5061817;28;20728;-73
2022/01/10 03:21:19;;;;;;;13.57;5.70;;;;;;;5.80;65.12;96195.16;5048436;28;20422;-71
2022/01/10 03:23:45;;;;;;;6.83;5.13;;;;;;;5.90;65.10;96199.44;5059521;28;20206;-71
2022/01/10 03:26:11;;;;;;;9.93;5.00;;;;;;;5.82;65.37;96210.59;5063471;28;20425;-71
2022/01/10 03:28:37;;;;;;;11.33;4.80;;;;;;;5.62;65.89;96210.72;5064726;28;20421;-71
2022/01/10 03:31:02;;;;;;;13.17;5.50;;;;;;;5.30;66.37;96222.34;5071384;28;20186;-71
2022/01/10 03:33:28;;;;;;;10.20;5.30;;;;;;;5.47;66.42;96219.94;5071070;28;20255;-73
2022/01/10 03:35:54;;;;;;;9.97;5.30;;;;;;;5.61;66.68;96222.06;5069870;28;20170;-73
2022/01/10 03:38:20;;;;;;;10.23;5.63;;;;;;;5.74;66.09;96221.72;5062194;28;20185;-72
2022/01/10 03:40:46;;;;;;;10.50;5.40;;;;;;;5.46;66.28;96231.31;5071115;28;20424;-72
2022/01/10 03:43:12;;;;;;;10.30;5.30;;;;;;;5.60;66.92;96222.22;5070609;28;20440;-72
2022/01/10 03:45:37;;;;;;;9.00;5.43;;;;;;;5.75;66.24;96230.34;5071613;28;20269;-72
2022/01/10 03:48:03;;;;;;;10.63;5.73;;;;;;;5.81;65.89;96237.53;5071553;28;20231;-71
2022/01/10 03:50:29;;;;;;;7.17;4.50;;;;;;;5.70;65.60;96230.78;5065252;28;20171;-71
2022/01/10 03:52:54;;;;;;;7.77;4.87;;;;;;;5.72;66.14;96230.63;5070774;28;20674;-72
2022/01/10 03:55:20;;;;;;;11.00;5.70;;;;;;;5.73;65.76;96238.31;5070732;28;20649;-72
2022/01/10 03:57:45;;;;;;;9.27;5.60;;;;;;;5.67;65.51;96238.88;5071573;28;20228;-72
2022/01/10 04:00:11;;;;;;;12.50;4.77;;;;;;;5.61;66.16;96240.28;5068755;28;20184;-71
2022/01/10 04:02:39;;;;;;;12.00;5.63;;;;;;;5.65;66.24;96246.00;5058629;28;20202;-71
2022/01/10 04:05:05;;;;;;;8.60;5.47;;;;;;;5.66;66.41;96245.88;5071213;28;20635;-72
2022/01/10 04:07:30;;;;;;;14.07;5.80;;;;;;;5.57;66.32;96246.72;5070091;28;20409;-70
2022/01/10 04:09:56;;;;;;;12.20;5.80;;;;;;;5.30;67.21;96253.53;5070615;28;20435;-71
2022/01/10 04:12:22;;;;;;;11.53;5.00;;;;;;;4.83;68.85;96251.75;5062250;28;20178;-70
2022/01/10 04:14:47;;;;;;;12.60;5.13;;;;;;;4.85;69.10;96259.41;5071162;28;20644;-71
2022/01/10 04:17:13;;;;;;;16.67;5.23;;;;;;;5.07;68.84;96260.84;5075136;28;20178;-72
2022/01/10 04:19:39;;;;;;;9.93;5.30;;;;;;;5.24;68.00;96259.31;5071065;28;20278;-72
2022/01/10 04:22:04;;;;;;;12.30;5.67;;;;;;;4.84;68.61;96268.97;5069221;28;20179;-70
2022/01/10 04:24:30;;;;;;;15.70;5.90;;;;;;;5.01;67.96;96264.84;5075062;28;20205;-72
2022/01/10 04:26:56;;;;;;;8.63;5.53;;;;;;;5.06;68.21;96272.22;5074548;28;20686;-73
2022/01/10 04:29:21;;;;;;;10.00;5.90;;;;;;;5.04;68.43;96272.31;5049418;28;20190;-72
2022/01/10 04:31:47;;;;;;;12.47;6.23;;;;;;;5.03;68.56;96283.69;5074200;28;20209;-72
2022/01/10 04:34:13;;;;;;;8.33;5.40;;;;;;;5.04;68.31;96282.72;5072843;28;20202;-71
2022/01/10 04:36:39;;;;;;;18.03;6.13;;;;;;;4.76;69.36;96285.25;5074519;28;20675;-72
2022/01/10 04:39:04;;;;;;;13.67;6.23;;;;;;;4.85;69.19;96285.38;5066573;28;20424;-72
2022/01/10 04:41:30;;;;;;;15.33;6.60;;;;;;;4.77;69.68;96293.84;5051543;28;20182;-71
2022/01/10 04:43:56;;;;;;;13.03;6.00;;;;;;;4.81;69.41;96299.56;5054944;28;20203;-72
2022/01/10 04:46:21;;;;;;;13.80;6.53;;;;;;;4.76;69.59;96295.63;5046413;28;20187;-72
2022/01/10 04:48:47;;;;;;;13.60;6.50;;;;;;;4.87;68.59;96304.22;5054266;28;20179;-71
2022/01/10 04:51:16;;;;;;;8.23;6.23;;;;;;;4.92;69.23;96312.41;5053031;28;20259;-72
2022/01/10 04:53:48;;;;;;;13.03;6.20;;;;;;;4.84;68.97;96310.53;5053565;28;20210;-72
2022/01/10 04:56:16;;;;;;;14.67;6.00;;;;;;;4.98;69.26;96317.06;5053984;28;20453;-71
2022/01/10 04:58:42;;;;;;;25.47;6.83;;;;;;;5.18;68.08;96311.81;5069152;28;20416;-73
2022/01/10 05:01:09;;;;;;;16.00;7.00;;;;;;;5.24;67.99;96324.25;5054428;28;20421;-72
2022/01/10 05:03:34;;;;;;;16.60;7.60;;;;;;;5.13;68.85;96330.41;5046596;28;20465;-72
2022/01/10 05:06:00;;;;;;;11.43;6.23;;;;;;;5.28;68.21;96332.56;5062264;28;20428;-72
2022/01/10 05:08:26;;;;;;;14.07;6.40;;;;;;;5.34;68.50;96332.84;5053586;28;20251;-72
2022/01/10 05:10:52;;;;;;;13.23;6.87;;;;;;;5.53;67.88;96338.94;5062952;28;20196;-73
2022/01/10 05:13:18;;;;;;;11.30;6.60;;;;;;;5.55;67.54;96339.59;5054112;28;20282;-71
2022/01/10 05:15:46;;;;;;;13.50;6.53;;;;;;;5.60;66.97;96347.81;5053582;28;20216;-71
2022/01/10 05:18:16;;;;;;;22.43;7.30;;;;;;;5.50;67.15;96355.63;5062669;28;20479;-72
2022/01/10 05:20:42;;;;;;;11.00;6.23;;;;;;;5.41;67.17;96351.28;5061488;28;20812;-72
2022/01/10 05:23:07;;;;;;;13.20;6.50;;;;;;;5.44;67.28;96352.78;5056975;28;20441;-72
2022/01/10 05:25:36;;;;;;;18.70;7.07;;;;;;;5.46;67.54;96369.06;5052383;28;20206;-72
2022/01/10 05:28:05;;;;;;;14.60;6.63;;;;;;;5.45;67.58;96365.66;5053156;28;20175;-71
2022/01/10 05:30:30;;;;;;;12.10;6.60;;;;;;;5.46;67.78;96371.66;5053210;28;20566;-71
2022/01/10 05:32:56;;;;;;;14.40;7.07;;;;;;;5.51;67.57;96375.47;5053034;28;20501;-72
2022/01/10 05:35:22;;;;;;;17.87;8.37;;;;;;;5.60;67.37;96375.59;5053400;28;20183;-72
2022/01/10 05:37:47;;;;;;;12.30;7.20;;;;;;;5.65;67.38;96375.97;5054075;28;20175;-72
2022/01/10 05:40:13;;;;;;;14.17;6.83;;;;;;;5.68;67.02;96381.69;5056350;28;20270;-72
2022/01/10 05:42:39;;;;;;;14.73;8.10;;;;;;;5.62;66.95;96387.47;5067630;28;20846;-72
2022/01/10 05:45:04;;;;;;;15.37;7.70;;;;;;;5.75;67.47;96386.34;5053300;28;20570;-73
2022/01/10 05:47:40;;;;;;;16.27;7.53;;;;;;;5.78;67.13;96394.69;5052364;28;20245;-73
2022/01/10 05:50:06;;;;;;;13.93;7.90;;;;;;;5.76;67.02;96396.59;5036085;28;20316;-71
2022/01/10 05:52:32;;;;;;;22.77;8.03;;;;;;;5.76;66.54;96403.59;5053445;28;21006;-72
2022/01/10 05:54:57;;;;;;;17.90;8.23;;;;;;;5.64;66.91;96400.34;5053742;28;20433;-71
2022/01/10 05:57:23;;;;;;;22.93;7.83;;;;;;;5.64;67.22;96413.31;5064102;28;20413;-72
2022/01/10 05:59:49;;;;;;;22.63;8.00;;;;;;;5.51;67.88;96418.84;5057630;28;20183;-72
2022/01/10 06:02:15;;;;;;;19.93;7.83;;;;;;;5.65;67.01;96423.59;5054448;28;20187;-71
2022/01/10 06:04:41;;;;;;;14.30;8.00;;;;;;;5.68;67.34;96419.91;5062171;28;20250;-71
2022/01/10 06:07:06;;;;;;;21.17;7.97;;;;;;;5.78;66.82;96422.47;5070223;28;20432;-71
2022/01/10 06:09:32;;;;;;;16.57;8.60;;;;;;;5.80;66.95;96430.94;5062898;28;20191;-72
2022/01/10 06:11:57;;;;;;;20.03;9.67;;;;;;;5.82;66.94;96434.22;5061918;28;20183;-71
2022/01/10 06:14:23;;;;;;;17.17;9.60;;;;;;;5.75;66.75;96438.34;5059910;28;20195;-72
2022/01/10 06:16:48;;;;;;;13.83;9.20;;;;;;;5.77;67.21;96452.03;5053467;28;20594;-72
2022/01/10 06:19:14;;;;;;;25.90;10.03;;;;;;;5.84;66.84;96460.91;5052535;28;20187;-70
2022/01/10 06:21:40;;;;;;;17.07;10.13;;;;;;;5.80;66.84;96456.94;5062047;28;20183;-71
2022/01/10 06:24:05;;;;;;;18.73;11.20;;;;;;;5.86;66.92;96472.00;5055010;28;20222;-74
2022/01/10 06:26:31;;;;;;;22.60;11.23;;;;;;;5.77;66.47;96472.84;5066786;28;20262;-71
2022/01/10 06:28:56;;;;;;;22.27;12.50;;;;;;;5.68;66.98;96479.69;5056561;28;20257;-70
2022/01/10 06:31:22;;;;;;;17.20;10.10;;;;;;;5.77;66.90;96491.03;5052531;28;20660;-72
2022/01/10 06:33:47;;;;;;;26.33;11.77;;;;;;;5.73;67.31;96493.09;5052965;28;20249;-71
2022/01/10 06:36:13;;;;;;;18.27;11.10;;;;;;;5.83;67.06;96504.31;5052819;28;20179;-71
2022/01/10 06:38:39;;;;;;;20.90;11.50;;;;;;;5.74;67.08;96504.31;5058940;28;20239;-71
2022/01/10 06:41:04;;;;;;;22.97;12.10;;;;;;;5.73;67.32;96507.88;5051653;28;20179;-71
2022/01/10 06:43:31;;;;;;;20.83;11.70;;;;;;;5.62;67.61;96507.06;5051287;28;20199;-70
2022/01/10 06:45:57;;;;;;;21.83;11.07;;;;;;;5.74;67.75;96519.91;5055213;28;20243;-73
2022/01/10 06:48:22;;;;;;;26.47;15.63;;;;;;;5.79;67.39;96515.13;5055101;28;20512;-73
2022/01/10 06:50:48;;;;;;;21.73;11.37;;;;;;;5.45;68.31;96511.19;5068911;28;20186;-71
2022/01/10 06:53:15;;;;;;;26.93;12.77;;;;;;;5.57;67.91;96524.84;5072081;28;20275;-71
2022/01/10 06:55:40;;;;;;;26.70;11.70;;;;;;;5.61;68.03;96531.41;5071470;28;20179;-73
2022/01/10 06:58:06;;;;;;;23.20;11.87;;;;;;;5.33;68.74;96528.69;5065861;28;20421;-72
2022/01/10 07:00:32;;;;;;;24.17;12.57;;;;;;;5.33;69.03;96535.66;5063187;28;20257;-72
2022/01/10 07:02:57;;;;;;;31.77;13.27;;;;;;;4.89;70.46;96547.19;5060483;28;20214;-72
2022/01/10 07:05:23;;;;;;;27.03;13.63;;;;;;;4.68;71.16;96549.06;5072464;28;20565;-71
2022/01/10 07:07:49;;;;;;;23.60;12.70;;;;;;;4.24;72.44;96562.25;5069790;28;20178;-72
2022/01/10 07:10:14;;;;;;;30.70;14.70;;;;;;;4.24;72.29;96565.66;5068997;28;20198;-71
2022/01/10 07:12:40;;;;;;;29.77;13.70;;;;;;;4.33;72.44;96577.03;5066065;28;20209;-72
2022/01/10 07:15:06;;;;;;;30.93;14.63;;;;;;;4.51;72.08;96573.84;5071850;28;20174;-72
2022/01/10 07:17:33;;;;;;;27.90;15.60;;;;;;;3.82;74.29;96576.84;5065138;28;20183;-71
2022/01/10 07:19:59;;;;;;;31.63;16.27;;;;;;;3.97;74.94;96576.56;5058077;28;20424;-73
2022/01/10 07:22:25;;;;;;;42.20;15.33;;;;;;;4.29;74.27;96592.03;5066631;28;20930;-71
2022/01/10 07:24:51;;;;;;;29.00;16.10;;;;;;;4.26;73.47;96594.88;5071960;28;20498;-73
2022/01/10 07:27:16;;;;;;;35.40;16.70;;;;;;;4.17;73.56;96597.41;5071501;28;20874;-71
2022/01/10 07:29:42;;;;;;;36.63;17.57;;;;;;;4.39;73.19;96596.47;5071223;28;20192;-77
2022/01/10 07:32:08;;;;;;;36.73;18.00;;;;;;;4.19;73.63;96605.91;5062950;28;20220;-71
2022/01/10 07:34:34;;;;;;;35.77;17.57;;;;;;;4.25;73.11;96608.81;5064425;28;20668;-72
2022/01/10 07:36:59;;;;;;;37.97;16.50;;;;;;;4.33;74.38;96620.34;5070404;28;20421;-72
2022/01/10 07:39:25;;;;;;;38.97;17.40;;;;;;;4.76;73.24;96625.34;5070768;28;20182;-71
2022/01/10 07:41:50;;;;;;;40.57;17.40;;;;;;;4.55;72.99;96640.09;5069690;28;20261;-71
2022/01/10 07:44:16;;;;;;;36.13;15.97;;;;;;;4.42;73.22;96643.72;5063921;28;20214;-71
2022/01/10 07:46:42;;;;;;;39.57;16.50;;;;;;;4.72;72.34;96644.72;5070989;28;20194;-73
2022/01/10 07:49:07;;;;;;;40.80;17.50;;;;;;;4.46;73.29;96652.09;5066883;28;20698;-72
2022/01/10 07:51:33;;;;;;;28.47;15.73;;;;;;;4.64;72.80;96661.88;5072262;28;20184;-73
2022/01/10 07:53:59;;;;;;;30.60;14.53;;;;;;;4.57;72.76;96667.59;5071949;28;20221;-73
2022/01/10 07:56:26;;;;;;;32.07;15.73;;;;;;;4.03;74.28;96661.63;5064087;28;20187;-71
2022/01/10 07:58:52;;;;;;;33.60;14.77;;;;;;;4.52;72.50;96668.94;5079006;28;20409;-73
2022/01/10 08:01:19;;;;;;;29.23;13.80;;;;;;;4.52;72.10;96668.94;5072433;28;20788;-73
2022/01/10 08:03:50;;;;;;;32.60;14.20;;;;;;;4.58;71.67;96668.41;5066042;28;20471;-72
2022/01/10 08:06:19;;;;;;;28.97;13.77;;;;;;;3.87;74.60;96676.78;5071605;28;21129;-72
2022/01/10 08:08:45;;;;;;;30.13;14.20;;;;;;;4.22;73.89;96684.28;5064967;28;20517;-71
2022/01/10 08:11:12;;;;;;;31.77;14.97;;;;;;;4.21;73.65;96682.66;5069910;28;20429;-71
2022/01/10 08:13:37;;;;;;;39.83;15.00;;;;;;;4.35;73.72;96684.09;5072034;28;20797;-74
2022/01/10 08:16:04;;;;;;;34.40;16.17;;;;;;;4.84;72.47;96696.56;5069950;28;20187;-72
2022/01/10 08:18:31;;;;;;;39.97;15.73;;;;;;;4.71;72.50;96695.00;5071435;28;20578;-71
2022/01/10 08:20:57;;;;;;;35.20;15.70;;;;;;;4.90;71.46;96703.84;5067097;28;20424;-71
2022/01/10 08:23:23;;;;;;;32.67;16.03;;;;;;;5.15;71.04;96709.56;5067671;28;20953;-71
2022/01/10 08:25:49;;;;;;;43.23;16.43;;;;;;;5.26;71.02;96713.81;5070938;28;20607;-71
2022/01/10 08:28:14;;;;;;;74.20;17.73;;;;;;;4.59;72.47;96721.97;5066935;28;20261;-73
2022/01/10 08:30:40;;;;;;;49.83;15.57;;;;;;;4.41;72.99;96714.72;5070994;28;20194;-72
2022/01/10 08:33:05;;;;;;;40.20;15.23;;;;;;;4.49;73.26;96728.88;5071194;28;20300;-70
2022/01/10 08:35:31;;;;;;;33.73;16.73;;;;;;;4.48;72.96;96730.63;5066329;28;20519;-73
2022/01/10 08:37:57;;;;;;;30.77;13.83;;;;;;;4.55;73.46;96731.78;5059343;28;20182;-72
2022/01/10 08:40:23;;;;;;;37.53;15.40;;;;;;;4.46;73.57;96732.53;5059220;28;20431;-72
2022/01/10 08:42:48;;;;;;;30.33;13.67;;;;;;;4.55;73.35;96736.13;5071422;28;20819;-71
2022/01/10 08:45:14;;;;;;;30.73;14.30;;;;;;;4.33;73.63;96737.09;5072130;28;20203;-74
2022/01/10 08:47:40;;;;;;;40.10;17.47;;;;;;;4.19;73.79;96749.41;5071660;28;20202;-74
2022/01/10 08:50:08;;;;;;;46.83;18.20;;;;;;;4.01;75.08;96764.66;5068216;28;20182;-72
2022/01/10 08:52:34;;;;;;;34.17;15.90;;;;;;;4.39;74.33;96749.53;5070452;28;20425;-73
2022/01/10 08:54:59;;;;;;;42.17;16.10;;;;;;;4.75;73.22;96760.44;5070123;28;20946;-74
2022/01/10 08:57:26;;;;;;;38.20;17.10;;;;;;;4.92;72.66;96751.25;5069755;28;20669;-73
2022/01/10 08:59:52;;;;;;;34.53;15.23;;;;;;;4.67;72.36;96766.28;5068102;28;20630;-71
2022/01/10 09:02:17;;;;;;;40.83;15.80;;;;;;;4.91;72.54;96768.63;5066711;28;20519;-72
2022/01/10 09:04:43;;;;;;;37.80;16.50;;;;;;;4.92;72.05;96778.06;5074639;28;20466;-69
2022/01/10 09:07:09;;;;;;;40.97;16.20;;;;;;;5.05;72.29;96775.25;5073729;28;20623;-72
2022/01/10 09:09:36;;;;;;;35.53;14.87;;;;;;;5.17;71.47;96777.78;5075382;28;20185;-74
2022/01/10 09:12:01;;;;;;;34.03;15.30;;;;;;;4.87;71.05;96782.81;5074700;28;20178;-73
2022/01/10 09:14:27;;;;;;;27.53;11.90;;;;;;;5.06;71.57;96779.50;5079290;28;20464;-72
2022/01/10 09:16:53;;;;;;;28.53;14.10;;;;;;;5.44;70.14;96789.41;5071291;28;20175;-73
2022/01/10 09:19:18;;;;;;;27.43;14.30;;;;;;;5.28;69.89;96788.13;5055251;28;20175;-73
2022/01/10 09:21:44;;;;;;;32.00;14.27;;;;;;;5.57;70.38;96800.41;5073264;28;20254;-73
2022/01/10 09:24:10;;;;;;;32.73;14.53;;;;;;;5.55;69.80;96797.09;5072634;28;20214;-72
2022/01/10 09:26:35;;;;;;;28.37;14.13;;;;;;;5.61;69.25;96796.59;5052296;28;20191;-72
2022/01/10 09:29:01;;;;;;;28.50;13.10;;;;;;;5.26;70.33;96796.97;5061195;28;20248;-72
2022/01/10 09:31:26;;;;;;;28.87;12.53;;;;;;;5.33;70.08;96804.13;5059266;28;20220;-70
2022/01/10 09:33:55;;;;;;;26.40;12.10;;;;;;;4.97;71.00;96814.03;5073829;28;20249;-73
2022/01/10 09:36:23;;;;;;;24.37;13.00;;;;;;;5.16;70.81;96817.72;5071339;28;20200;-73
2022/01/10 09:38:49;;;;;;;26.00;12.97;;;;;;;4.93;70.63;96815.25;5072938;28;20427;-72
2022/01/10 09:41:15;;;;;;;23.53;12.80;;;;;;;4.68;71.80;96826.81;5065212;28;20477;-71
2022/01/10 09:43:49;;;;;;;25.40;12.70;;;;;;;5.25;70.68;96827.34;5065860;28;20210;-73
2022/01/10 09:46:15;;;;;;;30.17;13.63;;;;;;;5.44;69.61;96825.78;5074107;28;20197;-74
2022/01/10 09:48:41;;;;;;;25.03;12.23;;;;;;;5.32;69.27;96825.88;5072256;28;20417;-72
2022/01/10 09:51:06;;;;;;;27.10;13.43;;;;;;;5.49;69.45;96831.44;5071637;28;20474;-72
2022/01/10 09:53:32;;;;;;;32.83;13.03;;;;;;;5.38;69.83;96843.56;5073576;28;20344;-72
2022/01/10 09:55:57;;;;;;;26.27;12.23;;;;;;;5.75;69.00;96849.19;5073324;28;20190;-72
2022/01/10 09:58:23;;;;;;;30.17;13.73;;;;;;;5.59;68.37;96849.69;5074317;28;20265;-75
2022/01/10 10:00:55;;;;;;;21.03;11.90;;;;;;;5.45;69.04;96856.03;5072419;28;20261;-73
2022/01/10 10:03:22;;;;;;;20.97;11.17;;;;;;;5.61;69.36;96851.19;5067698;28;20205;-71
2022/01/10 10:05:52;;;;;;;24.30;12.37;;;;;;;5.88;67.56;96856.78;5072537;28;20803;-72
2022/01/10 10:08:20;;;;;;;23.77;11.17;;;;;;;5.45;68.60;96859.47;5073034;28;20934;-73
2022/01/10 10:10:46;;;;;;;26.10;11.03;;;;;;;5.50;68.44;96872.06;5070770;28;20485;-72
2022/01/10 10:13:14;;;;;;;25.37;12.10;;;;;;;5.97;67.59;96871.59;5071154;28;20452;-72
2022/01/10 10:15:41;;;;;;;25.13;12.27;;;;;;;5.33;68.51;96871.69;5071248;28;20198;-72
2022/01/10 10:18:08;;;;;;;24.73;12.27;;;;;;;5.31;69.19;96878.78;5072994;28;20939;-72
2022/01/10 10:20:34;;;;;;;33.57;13.63;;;;;;;5.04;70.33;96879.31;5070311;28;20811;-72
2022/01/10 10:23:02;;;;;;;21.70;11.93;;;;;;;5.12;69.91;96876.88;5069067;28;20469;-72
2022/01/10 10:25:28;;;;;;;24.23;12.13;;;;;;;5.25;69.68;96875.88;5073771;28;20206;-74
2022/01/10 10:27:56;;;;;;;24.23;13.93;;;;;;;5.92;68.36;96884.97;5073336;28;20409;-75
2022/01/10 10:30:28;;;;;;;24.53;13.90;;;;;;;6.27;67.42;96886.38;5069221;28;20273;-74
2022/01/10 10:33:20;;;;;;;30.37;15.33;;;;;;;6.43;65.81;96885.03;5059754;28;21026;-73
2022/01/10 10:35:55;;;;;;;30.83;14.17;;;;;;;6.78;65.30;96886.34;5066861;28;20428;-73
2022/01/10 10:38:20;;;;;;;26.17;13.27;;;;;;;6.59;65.52;96893.16;5073666;28;20420;-72
2022/01/10 10:40:46;;;;;;;25.50;13.50;;;;;;;6.24;66.54;96893.63;5073868;28;20459;-71
2022/01/10 10:43:12;;;;;;;25.40;12.40;;;;;;;6.43;65.31;96891.06;5065782;28;20234;-73
2022/01/10 10:45:38;;;;;;;27.33;13.90;;;;;;;5.82;66.46;96895.38;5073250;28;20295;-75
2022/01/10 10:48:06;;;;;;;32.07;14.00;;;;;;;6.33;66.08;96894.59;5065076;28;20190;-73
2022/01/10 10:50:45;;;;;;;29.83;14.47;;;;;;;6.73;64.79;96898.94;5069883;28;20420;-72
2022/01/10 10:53:13;;;;;;;27.07;15.97;;;;;;;6.63;64.36;96901.50;5071925;28;20436;-71
2022/01/10 10:55:41;;;;;;;30.10;15.20;;;;;;;6.12;65.75;96905.91;5059355;28;20413;-72
2022/01/10 10:58:10;;;;;;;23.77;14.50;;;;;;;6.38;65.96;96905.44;5069824;28;20425;-73
2022/01/10 11:00:37;;;;;;;27.23;14.77;;;;;;;6.70;64.61;96902.63;5065695;28;20420;-74
2022/01/10 11:03:03;;;;;;;26.20;14.53;;;;;;;6.67;64.68;96902.91;5059113;28;20455;-73
2022/01/10 11:05:29;;;;;;;33.27;15.73;;;;;;;5.79;67.66;96908.63;5064410;28;20514;-72
2022/01/10 11:07:56;;;;;;;24.93;13.83;;;;;;;6.07;66.84;96915.88;5066117;28;20433;-73
2022/01/10 11:10:24;;;;;;;29.83;15.30;;;;;;;6.52;65.63;96927.66;5059256;28;20508;-72
2022/01/10 11:12:54;;;;;;;28.33;14.00;;;;;;;6.14;66.20;96923.03;5068917;28;20479;-73
2022/01/10 11:15:23;;;;;;;27.03;12.90;;;;;;;6.15;66.28;96927.28;5066524;28;20455;-72
2022/01/10 11:17:51;;;;;;;21.20;13.10;;;;;;;6.61;64.16;96924.28;5073735;28;20474;-72
2022/01/10 11:20:22;;;;;;;27.67;14.90;;;;;;;6.63;63.24;96937.97;5069888;28;20429;-73
2022/01/10 11:22:50;;;;;;;32.07;15.53;;;;;;;6.72;63.32;96937.19;5071788;28;20919;-74
2022/01/10 11:25:30;;;;;;;24.53;14.00;;;;;;;6.48;63.39;96941.94;5069843;28;20502;-72
2022/01/10 11:28:05;;;;;;;29.83;14.50;;;;;;;5.91;65.55;96944.94;5061131;28;20417;-74
2022/01/10 11:30:30;;;;;;;24.23;14.23;;;;;;;5.90;65.90;96941.53;5053207;28;20412;-73
2022/01/10 11:33:04;;;;;;;25.93;14.53;;;;;;;6.11;65.00;96944.09;5068402;28;20437;-74
2022/01/10 11:35:37;;;;;;;25.73;14.83;;;;;;;6.41;64.91;96946.84;5057526;28;20182;-73
2022/01/10 11:38:26;;;;;;;22.17;14.20;;;;;;;6.63;64.00;96953.59;5072449;28;20473;-73
2022/01/10 11:41:02;;;;;;;24.17;13.90;;;;;;;6.70;63.15;96956.50;5067768;28;20411;-72